createdAt,value
2023-02-12T00:02:04.686Z,4.93
2023-02-12T00:04:31.347Z,6.17
2023-02-12T00:06:57.952Z,6.90
2023-02-12T00:09:24.553Z,6.40
2023-02-12T00:11:51.527Z,4.80
2023-02-12T00:14:18.317Z,4.20
2023-02-12T00:16:44.935Z,2.67
2023-02-12T00:19:11.578Z,4.97
2023-02-12T00:21:38.201Z,4.97
2023-02-12T00:24:04.979Z,4.87
2023-02-12T00:26:31.595Z,5.07
2023-02-12T00:28:58.272Z,5.17
2023-02-12T00:31:28.327Z,5.13
2023-02-12T00:33:57.357Z,4.60
2023-02-12T00:36:26.240Z,5.13
2023-02-12T00:38:55.038Z,2.27
2023-02-12T00:41:25.050Z,4.90
2023-02-12T00:43:52.017Z,3.53
2023-02-12T00:46:19.405Z,5.00
2023-02-12T00:48:46.119Z,5.00
2023-02-12T00:51:13.060Z,4.87
2023-02-12T00:53:39.859Z,4.30
2023-02-12T00:56:07.738Z,2.10
2023-02-12T00:58:34.382Z,3.80
2023-02-12T01:01:01.388Z,4.10
2023-02-12T01:03:28.008Z,3.80
2023-02-12T01:05:54.930Z,4.43
2023-02-12T01:08:22.247Z,3.43
2023-02-12T01:10:58.710Z,4.80
2023-02-12T01:13:26.305Z,3.67
2023-02-12T01:16:23.483Z,2.20
2023-02-12T01:18:54.453Z,3.57
2023-02-12T01:21:27.899Z,4.10
2023-02-12T01:23:55.204Z,4.10
2023-02-12T01:26:23.062Z,3.53
2023-02-12T01:28:53.178Z,3.73
2023-02-12T01:31:24.594Z,4.60
2023-02-12T01:33:54.450Z,3.33
2023-02-12T01:36:21.561Z,3.13
2023-02-12T01:38:48.645Z,2.60
2023-02-12T01:41:23.657Z,3.93
2023-02-12T01:44:11.587Z,3.63
2023-02-12T01:46:39.194Z,1.70
2023-02-12T01:49:12.398Z,2.30
2023-02-12T01:51:41.127Z,4.63
2023-02-12T01:54:10.416Z,4.10
2023-02-12T01:56:38.257Z,3.40
2023-02-12T01:59:05.961Z,3.00
2023-02-12T02:01:33.530Z,5.63
2023-02-12T02:04:05.870Z,4.90
2023-02-12T02:06:38.223Z,4.70
2023-02-12T02:09:06.664Z,3.63
2023-02-12T02:11:51.955Z,3.70
2023-02-12T02:14:34.238Z,3.57
2023-02-12T02:17:19.525Z,4.57
2023-02-12T02:20:11.049Z,5.20
2023-02-12T02:22:47.998Z,4.27
2023-02-12T02:25:53.034Z,4.17
2023-02-12T02:28:46.921Z,4.97
2023-02-12T02:31:38.344Z,5.27
2023-02-12T02:34:13.867Z,6.63
2023-02-12T02:37:00.254Z,7.17
2023-02-12T02:39:38.956Z,4.47
2023-02-12T02:42:23.414Z,6.00
2023-02-12T02:44:55.266Z,4.23
2023-02-12T02:47:26.417Z,5.47
2023-02-12T02:50:01.802Z,5.10
2023-02-12T02:52:45.173Z,5.90
2023-02-12T02:55:15.845Z,5.17
2023-02-12T02:57:51.148Z,5.90
2023-02-12T03:00:33.519Z,6.60
2023-02-12T03:03:07.632Z,6.07
2023-02-12T03:05:44.545Z,7.73
2023-02-12T03:08:23.898Z,7.90
2023-02-12T03:10:56.134Z,6.43
2023-02-12T03:13:48.847Z,6.17
2023-02-12T03:16:32.041Z,6.13
2023-02-12T03:19:19.138Z,6.17
2023-02-12T03:22:06.383Z,5.73
2023-02-12T03:24:51.079Z,5.13
2023-02-12T03:27:22.873Z,5.83
2023-02-12T03:29:49.614Z,6.37
2023-02-12T03:32:22.921Z,6.17
2023-02-12T03:35:16.909Z,5.93
2023-02-12T03:38:09.089Z,7.53
2023-02-12T03:40:43.263Z,3.53
2023-02-12T03:43:27.410Z,10.37
2023-02-12T03:46:19.835Z,8.20
2023-02-12T03:49:03.067Z,7.63
2023-02-12T03:51:42.121Z,6.80
2023-02-12T03:54:10.996Z,7.27
2023-02-12T03:57:01.179Z,7.87
2023-02-12T03:59:28.814Z,8.80
2023-02-12T04:01:59.133Z,8.10
2023-02-12T04:04:27.039Z,9.13
2023-02-12T04:06:54.674Z,7.10
2023-02-12T04:09:23.918Z,7.63
2023-02-12T04:12:18.483Z,7.27
2023-02-12T04:15:17.061Z,6.73
2023-02-12T04:18:07.575Z,7.43
2023-02-12T04:20:54.644Z,7.87
2023-02-12T04:23:55.246Z,7.27
2023-02-12T04:26:28.160Z,5.40
2023-02-12T04:29:05.290Z,5.07
2023-02-12T04:31:43.009Z,5.97
2023-02-12T04:34:15.487Z,6.57
2023-02-12T04:36:49.599Z,7.60
2023-02-12T04:39:25.516Z,5.40
2023-02-12T04:41:52.840Z,7.20
2023-02-12T04:44:28.898Z,5.13
2023-02-12T04:46:55.541Z,6.03
2023-02-12T04:49:23.167Z,8.67
2023-02-12T04:51:50.385Z,9.57
2023-02-12T04:54:18.989Z,9.10
2023-02-12T04:56:46.074Z,8.60
2023-02-12T04:59:13.045Z,10.80
2023-02-12T05:01:40.786Z,8.17
2023-02-12T05:04:08.574Z,8.60
2023-02-12T05:06:36.385Z,8.27
2023-02-12T05:09:04.207Z,14.00
2023-02-12T05:11:30.841Z,11.97
2023-02-12T05:13:57.532Z,17.37
2023-02-12T05:16:24.483Z,22.60
2023-02-12T05:18:51.126Z,13.33
2023-02-12T05:21:17.927Z,14.90
2023-02-12T05:23:44.616Z,14.33
2023-02-12T05:26:17.538Z,17.00
2023-02-12T05:28:44.566Z,18.23
2023-02-12T05:31:14.854Z,17.67
2023-02-12T05:33:45.955Z,18.37
2023-02-12T05:36:15.835Z,22.73
2023-02-12T05:38:42.726Z,20.63
2023-02-12T05:41:19.135Z,22.33
2023-02-12T05:43:48.471Z,23.00
2023-02-12T05:46:18.012Z,21.20
2023-02-12T05:48:44.871Z,24.13
2023-02-12T05:51:14.707Z,20.43
2023-02-12T05:53:41.803Z,22.57
2023-02-12T05:56:25.456Z,22.37
2023-02-12T05:58:54.646Z,25.20
2023-02-12T06:01:30.353Z,23.40
2023-02-12T06:03:59.123Z,20.27
2023-02-12T06:06:27.419Z,23.07
2023-02-12T06:08:54.078Z,19.00
2023-02-12T06:11:21.364Z,20.33
2023-02-12T06:13:48.593Z,17.67
2023-02-12T06:16:21.096Z,22.27
2023-02-12T06:18:48.106Z,20.57
2023-02-12T06:21:15.363Z,20.73
2023-02-12T06:23:42.263Z,23.53
2023-02-12T06:26:08.901Z,20.97
2023-02-12T06:28:35.993Z,21.60
2023-02-12T06:31:02.991Z,22.63
2023-02-12T06:33:29.702Z,19.67
2023-02-12T06:35:57.141Z,23.77
2023-02-12T06:38:24.037Z,21.10
2023-02-12T06:40:50.697Z,22.13
2023-02-12T06:43:17.388Z,23.93
2023-02-12T06:45:44.022Z,21.00
2023-02-12T06:48:10.635Z,22.90
2023-02-12T06:50:37.299Z,25.43
2023-02-12T06:53:03.980Z,19.40
2023-02-12T06:55:30.572Z,23.10
2023-02-12T06:57:57.232Z,19.23
2023-02-12T07:00:24.088Z,21.63
2023-02-12T07:02:57.633Z,20.57
2023-02-12T07:05:24.774Z,20.10
2023-02-12T07:07:51.928Z,24.07
2023-02-12T07:10:18.987Z,23.60
2023-02-12T07:12:46.108Z,23.83
2023-02-12T07:15:14.013Z,20.73
2023-02-12T07:17:40.693Z,26.07
2023-02-12T07:20:07.926Z,27.40
2023-02-12T07:22:37.555Z,24.33
2023-02-12T07:25:04.409Z,25.43
2023-02-12T07:27:31.120Z,27.70
2023-02-12T07:29:57.710Z,27.73
2023-02-12T07:32:24.351Z,29.90
2023-02-12T07:34:50.945Z,28.07
2023-02-12T07:37:22.436Z,29.63
2023-02-12T07:39:49.688Z,26.33
2023-02-12T07:42:16.299Z,28.40
2023-02-12T07:44:48.909Z,29.80
2023-02-12T07:47:16.475Z,32.30
2023-02-12T07:49:43.142Z,40.07
2023-02-12T07:52:12.922Z,41.63
2023-02-12T07:54:39.903Z,34.77
2023-02-12T07:57:06.656Z,36.10
2023-02-12T07:59:33.344Z,36.53
2023-02-12T08:02:00.853Z,32.90
2023-02-12T08:04:27.640Z,31.97
2023-02-12T08:06:56.076Z,33.23
2023-02-12T08:09:25.377Z,26.10
2023-02-12T08:11:52.112Z,36.83
2023-02-12T08:14:20.433Z,37.27
2023-02-12T08:16:48.513Z,33.13
2023-02-12T08:19:21.616Z,29.67
2023-02-12T08:21:52.462Z,29.07
2023-02-12T08:24:21.866Z,30.23
2023-02-12T08:26:48.543Z,27.00
2023-02-12T08:29:18.687Z,28.37
2023-02-12T08:31:47.867Z,26.30
2023-02-12T08:34:16.940Z,25.67
2023-02-12T08:36:44.345Z,28.37
2023-02-12T08:39:11.626Z,29.70
2023-02-12T08:41:39.460Z,30.70
2023-02-12T08:44:06.327Z,26.60
2023-02-12T08:46:35.820Z,26.23
2023-02-12T08:49:11.640Z,28.60
2023-02-12T08:51:44.126Z,24.70
2023-02-12T08:54:13.214Z,25.00
2023-02-12T08:56:40.351Z,27.50
2023-02-12T08:59:08.411Z,26.30
2023-02-12T09:01:43.479Z,28.17
2023-02-12T09:04:27.787Z,28.03
2023-02-12T09:06:54.962Z,24.80
2023-02-12T09:09:22.264Z,28.53
2023-02-12T09:11:49.424Z,26.43
2023-02-12T09:14:18.685Z,27.70
2023-02-12T09:16:45.535Z,27.03
2023-02-12T09:19:13.725Z,29.43
2023-02-12T09:21:40.605Z,25.73
2023-02-12T09:24:07.919Z,26.87
2023-02-12T09:26:34.776Z,29.17
2023-02-12T09:29:04.794Z,27.60
2023-02-12T09:31:32.978Z,25.07
2023-02-12T09:34:02.520Z,24.90
2023-02-12T09:36:29.986Z,24.97
2023-02-12T09:38:59.138Z,26.73
2023-02-12T09:41:56.348Z,24.27
2023-02-12T09:44:33.642Z,24.37
2023-02-12T09:47:10.882Z,23.63
2023-02-12T09:50:03.036Z,24.53
2023-02-12T09:52:30.899Z,27.57
2023-02-12T09:54:58.847Z,24.83
2023-02-12T09:57:33.401Z,21.57
2023-02-12T10:00:08.349Z,24.00
2023-02-12T10:02:37.377Z,24.47
2023-02-12T10:05:05.402Z,29.57
2023-02-12T10:07:40.050Z,25.30
2023-02-12T10:10:15.684Z,23.50
2023-02-12T10:13:02.152Z,25.53
2023-02-12T10:15:44.919Z,30.50
2023-02-12T10:18:39.618Z,26.40
2023-02-12T10:21:21.905Z,27.13
2023-02-12T10:23:57.425Z,29.40
2023-02-12T10:26:44.113Z,25.97
2023-02-12T10:29:27.087Z,26.33
2023-02-12T10:32:07.601Z,29.73
2023-02-12T10:34:37.004Z,29.37
2023-02-12T10:37:11.946Z,27.97
2023-02-12T10:39:43.271Z,30.83
2023-02-12T10:42:25.926Z,30.73
2023-02-12T10:44:52.604Z,29.30
2023-02-12T10:47:21.806Z,27.37
2023-02-12T10:49:57.741Z,27.03
2023-02-12T10:52:41.976Z,24.63
2023-02-12T10:55:35.707Z,27.60
2023-02-12T10:58:04.778Z,26.93
2023-02-12T11:00:36.636Z,28.77
2023-02-12T11:03:19.148Z,26.97
2023-02-12T11:05:45.962Z,24.73
2023-02-12T11:08:32.616Z,24.77
2023-02-12T11:11:10.809Z,24.07
2023-02-12T11:13:59.528Z,21.23
2023-02-12T11:16:35.349Z,20.97
2023-02-12T11:19:05.298Z,22.03
2023-02-12T11:21:33.244Z,21.47
2023-02-12T11:24:25.931Z,21.20
2023-02-12T11:26:59.011Z,23.53
2023-02-12T11:29:25.613Z,22.53
2023-02-12T11:32:10.291Z,21.30
2023-02-12T11:34:37.072Z,22.10
2023-02-12T11:37:05.071Z,21.30
2023-02-12T11:39:36.270Z,23.80
2023-02-12T11:42:23.313Z,23.00
2023-02-12T11:44:53.064Z,23.43
2023-02-12T11:47:29.537Z,20.27
2023-02-12T11:50:02.596Z,24.27
2023-02-12T11:52:36.488Z,25.23
2023-02-12T11:55:07.049Z,23.77
2023-02-12T11:57:43.912Z,24.27
2023-02-12T12:00:22.441Z,24.30
2023-02-12T12:03:12.294Z,22.60
2023-02-12T12:05:55.999Z,22.23
2023-02-12T12:08:48.809Z,18.37
2023-02-12T12:11:33.670Z,20.47
2023-02-12T12:14:15.341Z,18.13
2023-02-12T12:17:07.936Z,19.83
2023-02-12T12:19:56.091Z,21.00
2023-02-12T12:22:46.714Z,22.33
2023-02-12T12:25:29.208Z,22.73
2023-02-12T12:28:05.628Z,21.67
2023-02-12T12:30:35.220Z,19.47
2023-02-12T12:33:06.578Z,19.27
2023-02-12T12:36:02.168Z,20.57
2023-02-12T12:39:05.489Z,17.00
2023-02-12T12:41:56.171Z,17.43
2023-02-12T12:44:54.353Z,15.70
2023-02-12T12:47:51.935Z,14.47
2023-02-12T12:51:03.122Z,12.20
2023-02-12T12:53:51.809Z,11.27
2023-02-12T12:56:24.191Z,11.40
2023-02-12T12:59:25.698Z,11.97
2023-02-12T13:01:55.270Z,8.57
2023-02-12T13:04:54.846Z,9.63
2023-02-12T13:07:37.209Z,9.00
2023-02-12T13:10:26.336Z,11.13
2023-02-12T13:13:31.265Z,9.60
2023-02-12T13:16:10.432Z,11.00
2023-02-12T13:19:03.295Z,8.73
2023-02-12T13:21:48.898Z,7.43
2023-02-12T13:24:45.007Z,7.07
2023-02-12T13:27:25.678Z,6.53
2023-02-12T13:30:04.639Z,5.97
2023-02-12T13:32:43.387Z,5.87
2023-02-12T13:35:22.742Z,4.80
2023-02-12T13:37:53.289Z,5.00
2023-02-12T13:40:22.669Z,5.03
2023-02-12T13:43:51.515Z,4.90
2023-02-12T13:46:25.437Z,5.03
2023-02-12T13:49:15.647Z,5.30
2023-02-12T13:51:46.530Z,6.70
2023-02-12T13:54:17.328Z,8.60
2023-02-12T13:56:53.731Z,5.10
2023-02-12T13:59:35.504Z,5.53
2023-02-12T14:02:06.011Z,5.17
2023-02-12T14:04:41.880Z,4.27
2023-02-12T14:07:12.576Z,4.93
2023-02-12T14:10:01.403Z,5.03
2023-02-12T14:12:34.199Z,5.67
2023-02-12T14:15:10.861Z,4.83
2023-02-12T14:17:40.147Z,3.57
2023-02-12T14:20:33.243Z,5.20
2023-02-12T14:23:20.334Z,4.00
2023-02-12T14:26:08.921Z,4.07
2023-02-12T14:28:50.706Z,3.97
2023-02-12T14:31:23.496Z,3.73
2023-02-12T14:33:52.302Z,7.87
2023-02-12T14:36:32.877Z,4.70
2023-02-12T14:39:19.815Z,4.97
2023-02-12T14:42:16.656Z,4.80
2023-02-12T14:44:47.594Z,5.47
2023-02-12T14:47:34.476Z,5.97
2023-02-12T14:50:15.181Z,6.63
2023-02-12T14:52:48.713Z,7.33
2023-02-12T14:55:30.181Z,6.93
2023-02-12T14:58:03.152Z,9.47
2023-02-12T15:00:41.211Z,7.53
2023-02-12T15:03:07.743Z,7.47
2023-02-12T15:05:42.412Z,8.97
2023-02-12T15:08:21.686Z,7.67
2023-02-12T15:11:00.383Z,9.00
2023-02-12T15:14:01.235Z,7.27
2023-02-12T15:16:42.883Z,8.23
2023-02-12T15:19:34.318Z,7.93
2023-02-12T15:22:00.992Z,7.23
2023-02-12T15:24:28.044Z,10.03
2023-02-12T15:26:58.243Z,6.00
2023-02-12T15:29:41.163Z,7.93
2023-02-12T15:32:14.931Z,6.27
2023-02-12T15:34:42.826Z,5.43
2023-02-12T15:37:16.861Z,5.97
2023-02-12T15:39:46.586Z,5.40
2023-02-12T15:42:58.961Z,6.40
2023-02-12T15:45:30.525Z,7.37
2023-02-12T15:48:08.857Z,7.73
2023-02-12T15:50:45.698Z,6.70
2023-02-12T15:53:13.448Z,7.97
2023-02-12T15:55:43.630Z,6.30
2023-02-12T15:58:48.533Z,7.30
2023-02-12T16:01:18.501Z,6.70
2023-02-12T16:03:51.139Z,7.03
2023-02-12T16:06:19.797Z,7.70
2023-02-12T16:09:06.733Z,6.63
2023-02-12T16:11:34.033Z,5.77
2023-02-12T16:14:03.783Z,5.63
2023-02-12T16:16:39.896Z,7.17
2023-02-12T16:19:17.444Z,4.90
2023-02-12T16:21:46.331Z,4.90
2023-02-12T16:24:21.069Z,4.20
2023-02-12T16:26:48.813Z,4.87
2023-02-12T16:29:17.934Z,4.17
2023-02-12T16:32:01.179Z,4.03
2023-02-12T16:34:34.850Z,4.10
2023-02-12T16:37:01.969Z,3.87
2023-02-12T16:39:55.816Z,4.10
2023-02-12T16:42:29.104Z,3.87
2023-02-12T16:44:56.249Z,3.60
2023-02-12T16:47:24.838Z,4.40
2023-02-12T16:50:02.127Z,5.63
2023-02-12T16:52:37.715Z,3.80
2023-02-12T16:55:07.491Z,3.73
2023-02-12T16:57:34.146Z,4.67
2023-02-12T17:00:00.806Z,4.50
2023-02-12T17:02:27.435Z,4.60
2023-02-12T17:04:56.732Z,4.77
2023-02-12T17:07:27.369Z,5.17
2023-02-12T17:09:53.971Z,6.00
2023-02-12T17:12:20.748Z,6.30
2023-02-12T17:14:47.746Z,4.83
2023-02-12T17:17:14.485Z,4.40
2023-02-12T17:19:41.150Z,4.77
2023-02-12T17:22:17.460Z,4.90
2023-02-12T17:24:44.078Z,6.27
2023-02-12T17:27:11.565Z,7.73
2023-02-12T17:29:38.163Z,5.43
2023-02-12T17:32:06.032Z,5.07
2023-02-12T17:34:46.588Z,8.70
2023-02-12T17:37:14.925Z,5.97
2023-02-12T17:39:41.514Z,7.90
2023-02-12T17:42:08.177Z,6.37
2023-02-12T17:44:34.798Z,6.00
2023-02-12T17:47:01.392Z,6.10
2023-02-12T17:49:28.074Z,6.60
2023-02-12T17:51:54.667Z,6.63
2023-02-12T17:54:21.264Z,7.03
2023-02-12T17:56:47.871Z,6.07
2023-02-12T17:59:14.494Z,6.03
2023-02-12T18:01:41.229Z,6.20
2023-02-12T18:04:07.949Z,6.50
2023-02-12T18:06:34.630Z,6.77
2023-02-12T18:09:04.406Z,6.60
2023-02-12T18:11:32.878Z,7.73
2023-02-12T18:14:00.189Z,7.27
2023-02-12T18:16:29.846Z,8.00
2023-02-12T18:18:57.239Z,7.77
2023-02-12T18:21:23.923Z,9.60
2023-02-12T18:23:50.701Z,8.67
2023-02-12T18:26:18.588Z,7.87
2023-02-12T18:28:45.936Z,8.17
2023-02-12T18:31:13.073Z,7.93
2023-02-12T18:33:40.309Z,7.70
2023-02-12T18:36:13.496Z,9.97
2023-02-12T18:38:41.179Z,8.73
2023-02-12T18:41:37.252Z,10.27
2023-02-12T18:44:05.221Z,8.20
2023-02-12T18:46:32.225Z,8.90
2023-02-12T18:48:59.572Z,8.80
2023-02-12T18:51:28.797Z,8.93
2023-02-12T18:54:06.427Z,8.83
2023-02-12T18:56:37.806Z,9.13
2023-02-12T18:59:05.922Z,9.63
2023-02-12T19:01:34.727Z,9.00
2023-02-12T19:04:03.200Z,9.03
2023-02-12T19:06:31.578Z,9.33
2023-02-12T19:09:00.123Z,9.70
2023-02-12T19:11:27.823Z,11.50
2023-02-12T19:13:55.010Z,10.93
2023-02-12T19:16:23.671Z,10.27
2023-02-12T19:18:54.545Z,10.07
2023-02-12T19:21:22.776Z,10.73
2023-02-12T19:23:52.801Z,11.83
2023-02-12T19:26:19.594Z,11.03
2023-02-12T19:28:46.428Z,11.30
2023-02-12T19:31:17.334Z,12.03
2023-02-12T19:33:45.522Z,12.87
2023-02-12T19:36:15.081Z,12.07
2023-02-12T19:38:41.841Z,12.53
2023-02-12T19:41:14.356Z,13.10
2023-02-12T19:43:41.362Z,13.90
2023-02-12T19:46:12.414Z,12.53
2023-02-12T19:48:40.162Z,14.00
2023-02-12T19:51:09.981Z,13.63
2023-02-12T19:53:36.615Z,13.70
2023-02-12T19:56:04.475Z,15.73
2023-02-12T19:58:31.299Z,14.30
2023-02-12T20:00:58.339Z,13.57
2023-02-12T20:03:26.259Z,13.60
2023-02-12T20:06:05.088Z,14.40
2023-02-12T20:08:33.174Z,14.30
2023-02-12T20:10:59.790Z,18.70
2023-02-12T20:13:26.389Z,14.00
2023-02-12T20:15:53.734Z,15.40
2023-02-12T20:18:20.398Z,16.50
2023-02-12T20:20:47.080Z,16.97
2023-02-12T20:23:13.736Z,17.03
2023-02-12T20:25:44.772Z,15.90
2023-02-12T20:28:11.447Z,15.70
2023-02-12T20:30:42.728Z,15.20
2023-02-12T20:33:09.952Z,16.80
2023-02-12T20:35:37.111Z,18.37
2023-02-12T20:38:07.577Z,18.60
2023-02-12T20:40:34.514Z,17.23
2023-02-12T20:43:01.118Z,16.23
2023-02-12T20:45:27.978Z,15.27
2023-02-12T20:47:54.574Z,17.50
2023-02-12T20:50:21.195Z,16.43
2023-02-12T20:52:50.736Z,15.90
2023-02-12T20:55:17.563Z,16.73
2023-02-12T20:57:44.213Z,16.10
2023-02-12T21:00:11.485Z,16.50
2023-02-12T21:02:38.187Z,16.77
2023-02-12T21:05:05.177Z,18.47
2023-02-12T21:07:31.801Z,14.50
2023-02-12T21:09:58.519Z,15.07
2023-02-12T21:12:25.160Z,14.63
2023-02-12T21:14:51.760Z,14.67
2023-02-12T21:17:20.239Z,14.93
2023-02-12T21:19:46.848Z,14.13
2023-02-12T21:22:13.514Z,14.97
2023-02-12T21:24:40.211Z,13.47
2023-02-12T21:27:06.885Z,13.10
2023-02-12T21:29:33.629Z,13.60
2023-02-12T21:32:01.117Z,13.73
2023-02-12T21:34:27.825Z,12.30
2023-02-12T21:36:55.887Z,12.33
2023-02-12T21:39:28.101Z,12.70
2023-02-12T21:42:03.160Z,12.23
2023-02-12T21:44:36.790Z,12.23
2023-02-12T21:47:03.791Z,15.43
2023-02-12T21:49:30.410Z,12.63
2023-02-12T21:51:59.614Z,13.33
2023-02-12T21:54:26.858Z,13.27
2023-02-12T21:56:53.618Z,12.60
2023-02-12T21:59:20.310Z,10.80
2023-02-12T22:01:49.807Z,12.10
2023-02-12T22:04:17.469Z,12.03
2023-02-12T22:06:46.644Z,11.80
2023-02-12T22:09:15.444Z,12.27
2023-02-12T22:11:43.036Z,11.70
2023-02-12T22:14:15.864Z,12.00
2023-02-12T22:16:42.982Z,12.43
2023-02-12T22:19:09.785Z,12.00
2023-02-12T22:21:38.692Z,12.47
2023-02-12T22:24:07.346Z,11.70
2023-02-12T22:26:34.487Z,11.60
2023-02-12T22:29:09.820Z,12.17
2023-02-12T22:31:38.740Z,12.40
2023-02-12T22:34:08.330Z,13.77
2023-02-12T22:36:36.515Z,14.07
2023-02-12T22:39:04.098Z,19.63
2023-02-12T22:41:31.218Z,58.17
2023-02-12T22:44:02.131Z,12.67
2023-02-12T22:46:28.896Z,16.97
2023-02-12T22:48:55.620Z,12.13
2023-02-12T22:51:27.944Z,13.27
2023-02-12T22:53:55.289Z,15.87
2023-02-12T22:56:22.601Z,12.27
2023-02-12T22:58:53.390Z,12.57
2023-02-12T23:01:21.043Z,14.00
2023-02-12T23:03:47.724Z,13.20
2023-02-12T23:06:17.279Z,12.33
2023-02-12T23:08:44.427Z,12.73
2023-02-12T23:11:12.182Z,12.40
2023-02-12T23:13:39.103Z,12.50
2023-02-12T23:16:05.970Z,12.63
2023-02-12T23:18:33.112Z,12.30
2023-02-12T23:21:00.317Z,13.40
2023-02-12T23:23:27.111Z,12.70
2023-02-12T23:25:54.539Z,11.63
2023-02-12T23:28:22.053Z,12.27
2023-02-12T23:30:50.398Z,12.33
2023-02-12T23:33:17.178Z,13.53
2023-02-12T23:35:47.901Z,13.43
2023-02-12T23:38:15.405Z,12.30
2023-02-12T23:40:42.433Z,13.33
2023-02-12T23:43:09.074Z,15.00
2023-02-12T23:45:35.735Z,13.10
2023-02-12T23:48:02.403Z,12.70
2023-02-12T23:50:29.037Z,13.40
2023-02-12T23:52:55.615Z,13.60
2023-02-12T23:55:22.266Z,13.07
2023-02-12T23:57:49.874Z,12.83
